sensor_id;sensor_type;location;lat;lon;timestamp;pressure;altitude;pressure_sealevel;temperature;humidity
66524;BME280;53350;52.210;5.160;2022-09-16T00:00:13;101090.47;;;15.45;70.48
66524;BME280;53350;52.210;5.160;2022-09-16T00:02:39;101089.72;;;15.41;69.71
66524;BME280;53350;52.210;5.160;2022-09-16T00:05:07;101094.22;;;15.35;70.11
66524;BME280;53350;52.210;5.160;2022-09-16T00:07:34;101095.22;;;15.30;69.88
66524;BME280;53350;52.210;5.160;2022-09-16T00:10:00;101093.47;;;15.31;70.48
66524;BME280;53350;52.210;5.160;2022-09-16T00:12:27;101093.47;;;15.31;70.26
66524;BME280;53350;52.210;5.160;2022-09-16T00:14:53;101093.44;;;15.33;69.94
66524;BME280;53350;52.210;5.160;2022-09-16T00:17:20;101097.75;;;15.32;70.42
66524;BME280;53350;52.210;5.160;2022-09-16T00:19:46;101102.16;;;15.30;69.70
66524;BME280;53350;52.210;5.160;2022-09-16T00:22:14;101103.91;;;15.29;70.12
66524;BME280;53350;52.210;5.160;2022-09-16T00:24:41;101091.88;;;15.27;70.43
66524;BME280;53350;52.210;5.160;2022-09-16T00:27:07;101090.25;;;15.23;70.36
66524;BME280;53350;52.210;5.160;2022-09-16T00:29:33;101093.81;;;15.19;70.89
66524;BME280;53350;52.210;5.160;2022-09-16T00:32:00;101094.69;;;15.18;71.38
66524;BME280;53350;52.210;5.160;2022-09-16T00:34:26;101086.91;;;15.18;71.51
66524;BME280;53350;52.210;5.160;2022-09-16T00:36:52;101087.91;;;15.13;71.19
66524;BME280;53350;52.210;5.160;2022-09-16T00:39:20;101095.66;;;15.15;71.91
66524;BME280;53350;52.210;5.160;2022-09-16T00:41:46;101076.72;;;15.11;71.26
66524;BME280;53350;52.210;5.160;2022-09-16T00:46:54;101082.81;;;15.09;71.68
66524;BME280;53350;52.210;5.160;2022-09-16T00:49:21;101081.94;;;15.10;71.33
66524;BME280;53350;52.210;5.160;2022-09-16T00:51:50;101090.47;;;15.15;71.57
66524;BME280;53350;52.210;5.160;2022-09-16T00:54:18;101090.34;;;15.20;71.26
66524;BME280;53350;52.210;5.160;2022-09-16T00:56:47;101095.53;;;15.20;71.84
66524;BME280;53350;52.210;5.160;2022-09-16T00:59:15;101098.03;;;15.23;71.88
66524;BME280;53350;52.210;5.160;2022-09-16T01:01:43;101096.19;;;15.26;72.29
66524;BME280;53350;52.210;5.160;2022-09-16T01:04:12;101099.59;;;15.28;71.63
66524;BME280;53350;52.210;5.160;2022-09-16T01:06:39;101098.75;;;15.28;72.02
66524;BME280;53350;52.210;5.160;2022-09-16T01:09:06;101095.25;;;15.29;71.94
66524;BME280;53350;52.210;5.160;2022-09-16T01:11:32;101097.00;;;15.28;71.18
66524;BME280;53350;52.210;5.160;2022-09-16T01:14:00;101101.38;;;15.26;71.36
66524;BME280;53350;52.210;5.160;2022-09-16T01:16:41;101105.63;;;15.29;71.24
66524;BME280;53350;52.210;5.160;2022-09-16T01:19:11;101105.59;;;15.30;71.26
66524;BME280;53350;52.210;5.160;2022-09-16T01:21:41;101109.06;;;15.31;71.00
66524;BME280;53350;52.210;5.160;2022-09-16T01:26:57;101100.44;;;15.29;70.93
66524;BME280;53350;52.210;5.160;2022-09-16T01:29:41;101089.28;;;15.27;70.95
66524;BME280;53350;52.210;5.160;2022-09-16T01:32:16;101093.59;;;15.26;71.43
66524;BME280;53350;52.210;5.160;2022-09-16T01:34:47;101093.69;;;15.23;71.02
66524;BME280;53350;52.210;5.160;2022-09-16T01:37:19;101094.56;;;15.24;71.44
66524;BME280;53350;52.210;5.160;2022-09-16T01:39:52;101093.75;;;15.20;70.89
66524;BME280;53350;52.210;5.160;2022-09-16T01:42:24;101094.63;;;15.21;70.92
66524;BME280;53350;52.210;5.160;2022-09-16T01:44:56;101086.81;;;15.22;70.91
66524;BME280;53350;52.210;5.160;2022-09-16T01:47:29;101091.13;;;15.22;70.67
66524;BME280;53350;52.210;5.160;2022-09-16T01:49:59;101094.69;;;15.18;70.45
66524;BME280;53350;52.210;5.160;2022-09-16T01:52:31;101100.84;;;15.15;70.67
66524;BME280;53350;52.210;5.160;2022-09-16T01:55:01;101103.44;;;15.15;71.10
66524;BME280;53350;52.210;5.160;2022-09-16T01:57:30;101104.28;;;15.16;70.90
66524;BME280;53350;52.210;5.160;2022-09-16T02:00:00;101107.66;;;15.18;71.38
66524;BME280;53350;52.210;5.160;2022-09-16T02:02:30;101104.19;;;15.19;71.33
66524;BME280;53350;52.210;5.160;2022-09-16T02:04:57;101096.41;;;15.19;71.55
66524;BME280;53350;52.210;5.160;2022-09-16T02:07:28;101099.03;;;15.17;71.49
66524;BME280;53350;52.210;5.160;2022-09-16T02:09:57;101099.00;;;15.19;71.33
66524;BME280;53350;52.210;5.160;2022-09-16T02:12:26;101098.16;;;15.18;71.32
66524;BME280;53350;52.210;5.160;2022-09-16T02:14:55;101093.81;;;15.19;71.33
66524;BME280;53350;52.210;5.160;2022-09-16T02:17:23;101099.88;;;15.18;71.12
66524;BME280;53350;52.210;5.160;2022-09-16T02:19:53;101089.50;;;15.18;71.50
66524;BME280;53350;52.210;5.160;2022-09-16T02:22:24;101087.78;;;15.18;71.17
66524;BME280;53350;52.210;5.160;2022-09-16T02:24:52;101086.91;;;15.18;70.99
66524;BME280;53350;52.210;5.160;2022-09-16T02:27:19;101086.91;;;15.18;71.25
66524;BME280;53350;52.210;5.160;2022-09-16T02:29:48;101091.25;;;15.17;71.50
66524;BME280;53350;52.210;5.160;2022-09-16T02:32:16;101107.66;;;15.18;71.38
66524;BME280;53350;52.210;5.160;2022-09-16T02:34:45;101123.25;;;15.18;71.41
66524;BME280;53350;52.210;5.160;2022-09-16T02:37:14;101125.00;;;15.17;71.41
66524;BME280;53350;52.210;5.160;2022-09-16T02:39:43;101125.88;;;15.16;71.92
66524;BME280;53350;52.210;5.160;2022-09-16T02:42:12;101121.66;;;15.13;71.95
66524;BME280;53350;52.210;5.160;2022-09-16T02:44:38;101116.63;;;15.06;71.59
66524;BME280;53350;52.210;5.160;2022-09-16T02:47:06;101107.28;;;15.00;72.02
66524;BME280;53350;52.210;5.160;2022-09-16T02:49:36;101109.03;;;15.00;72.12
66524;BME280;53350;52.210;5.160;2022-09-16T02:52:07;101094.44;;;14.95;71.62
66524;BME280;53350;52.210;5.160;2022-09-16T02:54:40;101090.94;;;14.97;71.83
66524;BME280;53350;52.210;5.160;2022-09-16T02:57:11;101094.34;;;14.99;72.00
66524;BME280;53350;52.210;5.160;2022-09-16T02:59:38;101090.94;;;14.97;71.58
66524;BME280;53350;52.210;5.160;2022-09-16T03:02:04;101088.31;;;14.98;71.63
66524;BME280;53350;52.210;5.160;2022-09-16T03:04:30;101085.69;;;15.00;71.70
66524;BME280;53350;52.210;5.160;2022-09-16T03:06:59;101081.28;;;15.02;71.77
66524;BME280;53350;52.210;5.160;2022-09-16T03:09:25;101082.16;;;15.02;71.58
66524;BME280;53350;52.210;5.160;2022-09-16T03:12:06;101102.91;;;15.02;71.50
66524;BME280;53350;52.210;5.160;2022-09-16T03:14:40;101113.34;;;15.01;71.71
66524;BME280;53350;52.210;5.160;2022-09-16T03:17:14;101113.38;;;14.99;71.38
66524;BME280;53350;52.210;5.160;2022-09-16T03:19:49;101112.41;;;15.02;72.33
66524;BME280;53350;52.210;5.160;2022-09-16T03:22:21;101113.28;;;15.02;71.77
66524;BME280;53350;52.210;5.160;2022-09-16T03:24:53;101107.19;;;15.03;72.14
66524;BME280;53350;52.210;5.160;2022-09-16T03:27:27;101115.94;;;15.01;71.89
66524;BME280;53350;52.210;5.160;2022-09-16T03:29:56;101101.38;;;14.95;72.00
66524;BME280;53350;52.210;5.160;2022-09-16T03:32:26;101100.59;;;14.91;71.86
66524;BME280;53350;52.210;5.160;2022-09-16T03:34:58;101092.06;;;14.88;72.31
66524;BME280;53350;52.210;5.160;2022-09-16T03:37:25;101079.16;;;14.85;72.11
66524;BME280;53350;52.210;5.160;2022-09-16T03:39:56;101076.66;;;14.82;72.28
66524;BME280;53350;52.210;5.160;2022-09-16T03:42:24;101074.94;;;14.81;72.45
66524;BME280;53350;52.210;5.160;2022-09-16T03:44:50;101074.06;;;14.82;72.71
66524;BME280;53350;52.210;5.160;2022-09-16T03:47:17;101074.06;;;14.80;72.46
66524;BME280;53350;52.210;5.160;2022-09-16T03:49:43;101077.59;;;14.79;72.34
66524;BME280;53350;52.210;5.160;2022-09-16T03:52:10;101071.53;;;14.78;72.03
66524;BME280;53350;52.210;5.160;2022-09-16T03:54:36;101077.63;;;14.77;71.90
66524;BME280;53350;52.210;5.160;2022-09-16T03:57:02;101079.34;;;14.77;71.77
66524;BME280;53350;52.210;5.160;2022-09-16T03:59:30;101088.03;;;14.76;71.60
66524;BME280;53350;52.210;5.160;2022-09-16T04:01:57;101078.50;;;14.76;71.83
66524;BME280;53350;52.210;5.160;2022-09-16T04:04:23;101074.16;;;14.77;72.08
66524;BME280;53350;52.210;5.160;2022-09-16T04:06:49;101080.25;;;14.76;71.50
66524;BME280;53350;52.210;5.160;2022-09-16T04:09:16;101073.41;;;14.73;71.23
66524;BME280;53350;52.210;5.160;2022-09-16T04:11:42;101082.06;;;14.72;71.22
66524;BME280;53350;52.210;5.160;2022-09-16T04:14:08;101077.75;;;14.71;71.23
66524;BME280;53350;52.210;5.160;2022-09-16T04:16:36;101079.50;;;14.71;71.20
66524;BME280;53350;52.210;5.160;2022-09-16T04:19:03;101076.91;;;14.71;71.23
66524;BME280;53350;52.210;5.160;2022-09-16T04:21:29;101083.06;;;14.67;70.96
66524;BME280;53350;52.210;5.160;2022-09-16T04:23:55;101079.72;;;14.63;71.03
66524;BME280;53350;52.210;5.160;2022-09-16T04:26:21;101085.78;;;14.60;71.02
66524;BME280;53350;52.210;5.160;2022-09-16T04:28:50;101082.41;;;14.58;70.62
66524;BME280;53350;52.210;5.160;2022-09-16T04:31:17;101087.63;;;14.55;70.64
66524;BME280;53350;52.210;5.160;2022-09-16T04:33:44;101075.63;;;14.53;71.88
66524;BME280;53350;52.210;5.160;2022-09-16T04:36:11;101072.19;;;14.51;71.08
66524;BME280;53350;52.210;5.160;2022-09-16T04:38:38;101071.44;;;14.47;71.25
66524;BME280;53350;52.210;5.160;2022-09-16T04:41:06;101068.06;;;14.43;71.05
66524;BME280;53350;52.210;5.160;2022-09-16T04:43:32;101074.16;;;14.42;71.03
66524;BME280;53350;52.210;5.160;2022-09-16T04:45:59;101080.22;;;14.41;71.53
66524;BME280;53350;52.210;5.160;2022-09-16T04:48:25;101075.84;;;14.43;71.45
66524;BME280;53350;52.210;5.160;2022-09-16T04:50:53;101080.13;;;14.44;71.67
66524;BME280;53350;52.210;5.160;2022-09-16T04:53:21;101083.56;;;14.45;71.21
66524;BME280;53350;52.210;5.160;2022-09-16T04:55:48;101084.41;;;14.47;72.04
66524;BME280;53350;52.210;5.160;2022-09-16T04:58:14;101067.09;;;14.48;71.93
66524;BME280;53350;52.210;5.160;2022-09-16T05:00:40;101050.75;;;14.46;71.63
66524;BME280;53350;52.210;5.160;2022-09-16T05:03:06;101058.56;;;14.44;71.50
66524;BME280;53350;52.210;5.160;2022-09-16T05:05:33;101070.66;;;14.43;71.89
66524;BME280;53350;52.210;5.160;2022-09-16T05:08:01;101068.94;;;14.44;71.91
66524;BME280;53350;52.210;5.160;2022-09-16T05:10:27;101068.94;;;14.44;72.01
66524;BME280;53350;52.210;5.160;2022-09-16T05:12:54;101073.16;;;14.47;71.72
66524;BME280;53350;52.210;5.160;2022-09-16T05:15:20;101071.44;;;14.47;71.75
66524;BME280;53350;52.210;5.160;2022-09-16T05:17:46;101079.19;;;14.49;71.64
66524;BME280;53350;52.210;5.160;2022-09-16T05:20:13;101101.63;;;14.48;71.34
66524;BME280;53350;52.210;5.160;2022-09-16T05:22:39;101101.66;;;14.47;72.30
66524;BME280;53350;52.210;5.160;2022-09-16T05:25:08;101093.84;;;14.48;72.64
66524;BME280;53350;52.210;5.160;2022-09-16T05:27:34;101086.13;;;14.47;72.26
66524;BME280;53350;52.210;5.160;2022-09-16T05:30:00;101099.09;;;14.47;72.65
66524;BME280;53350;52.210;5.160;2022-09-16T05:32:27;101091.25;;;14.48;72.61
66524;BME280;53350;52.210;5.160;2022-09-16T05:34:53;101093.00;;;14.48;72.72
66524;BME280;53350;52.210;5.160;2022-09-16T05:37:20;101100.78;;;14.48;72.97
66524;BME280;53350;52.210;5.160;2022-09-16T05:39:46;101097.44;;;14.44;72.75
66524;BME280;53350;52.210;5.160;2022-09-16T05:42:14;101092.22;;;14.46;72.89
66524;BME280;53350;52.210;5.160;2022-09-16T05:44:40;101106.84;;;14.47;72.93
66524;BME280;53350;52.210;5.160;2022-09-16T05:47:07;101110.34;;;14.46;73.09
66524;BME280;53350;52.210;5.160;2022-09-16T05:49:33;101099.13;;;14.45;72.61
66524;BME280;53350;52.210;5.160;2022-09-16T05:51:59;101098.28;;;14.44;72.54
66524;BME280;53350;52.210;5.160;2022-09-16T05:54:26;101103.44;;;14.46;72.44
66524;BME280;53350;52.210;5.160;2022-09-16T05:56:52;101103.38;;;14.48;72.45
66524;BME280;53350;52.210;5.160;2022-09-16T05:59:20;101098.13;;;14.51;72.25
66524;BME280;53350;52.210;5.160;2022-09-16T06:01:47;101099.00;;;14.51;72.19
66524;BME280;53350;52.210;5.160;2022-09-16T06:04:14;101110.19;;;14.52;72.90
66524;BME280;53350;52.210;5.160;2022-09-16T06:06:41;101102.38;;;14.53;72.42
66524;BME280;53350;52.210;5.160;2022-09-16T06:09:08;101116.09;;;14.57;72.54
66524;BME280;53350;52.210;5.160;2022-09-16T06:11:35;101108.28;;;14.60;72.63
66524;BME280;53350;52.210;5.160;2022-09-16T06:14:02;101114.22;;;14.65;72.51
66524;BME280;53350;52.210;5.160;2022-09-16T06:16:29;101115.81;;;14.71;72.76
66524;BME280;53350;52.210;5.160;2022-09-16T06:18:57;101126.94;;;14.76;73.09
66524;BME280;53350;52.210;5.160;2022-09-16T06:21:24;101123.34;;;14.80;72.96
66524;BME280;53350;52.210;5.160;2022-09-16T06:23:50;101126.78;;;14.82;73.08
66524;BME280;53350;52.210;5.160;2022-09-16T06:26:18;101122.47;;;14.81;72.69
66524;BME280;53350;52.210;5.160;2022-09-16T06:28:44;101119.78;;;14.84;72.70
66524;BME280;53350;52.210;5.160;2022-09-16T06:31:11;101124.91;;;14.87;72.28
66524;BME280;53350;52.210;5.160;2022-09-16T06:33:39;101112.00;;;14.84;72.31
66524;BME280;53350;52.210;5.160;2022-09-16T06:36:06;101109.47;;;14.83;72.10
66524;BME280;53350;52.210;5.160;2022-09-16T06:38:33;101113.84;;;14.81;72.01
66524;BME280;53350;52.210;5.160;2022-09-16T06:41:00;101117.31;;;14.80;72.08
66524;BME280;53350;52.210;5.160;2022-09-16T06:43:27;101115.66;;;14.77;71.90
66524;BME280;53350;52.210;5.160;2022-09-16T06:45:55;101118.31;;;14.74;71.92
66524;BME280;53350;52.210;5.160;2022-09-16T06:48:21;101104.44;;;14.76;71.94
66524;BME280;53350;52.210;5.160;2022-09-16T06:50:49;101099.91;;;14.85;72.14
66524;BME280;53350;52.210;5.160;2022-09-16T06:53:21;101108.31;;;14.93;72.16
66524;BME280;53350;52.210;5.160;2022-09-16T06:55:48;101107.34;;;14.97;71.88
66524;BME280;53350;52.210;5.160;2022-09-16T06:58:14;101104.59;;;15.03;71.89
66524;BME280;53350;52.210;5.160;2022-09-16T07:00:40;101112.28;;;15.08;71.91
66524;BME280;53350;52.210;5.160;2022-09-16T07:03:07;101115.50;;;15.16;72.01
66524;BME280;53350;52.210;5.160;2022-09-16T07:05:33;101115.22;;;15.27;72.08
66524;BME280;53350;52.210;5.160;2022-09-16T07:08:01;101108.84;;;15.39;72.12
66524;BME280;53350;52.210;5.160;2022-09-16T07:10:27;101111.94;;;15.52;71.98
66524;BME280;53350;52.210;5.160;2022-09-16T07:12:54;101104.78;;;15.60;71.78
66524;BME280;53350;52.210;5.160;2022-09-16T07:15:20;101106.38;;;15.64;71.43
66524;BME280;53350;52.210;5.160;2022-09-16T07:17:47;101108.03;;;15.67;71.34
66524;BME280;53350;52.210;5.160;2022-09-16T07:20:18;101101.88;;;15.71;71.34
66524;BME280;53350;52.210;5.160;2022-09-16T07:22:44;101105.25;;;15.74;71.08
66524;BME280;53350;52.210;5.160;2022-09-16T07:25:16;101103.31;;;15.81;71.28
66524;BME280;53350;52.210;5.160;2022-09-16T07:27:42;101105.66;;;15.90;71.29
66524;BME280;53350;52.210;5.160;2022-09-16T07:30:08;101108.69;;;16.03;71.30
66524;BME280;53350;52.210;5.160;2022-09-16T07:32:35;101109.13;;;16.17;71.23
66524;BME280;53350;52.210;5.160;2022-09-16T07:35:02;101110.31;;;16.36;71.05
66524;BME280;53350;52.210;5.160;2022-09-16T07:37:29;101129.59;;;16.55;70.68
66524;BME280;53350;52.210;5.160;2022-09-16T07:39:55;101131.81;;;16.67;69.74
66524;BME280;53350;52.210;5.160;2022-09-16T07:42:23;101150.91;;;16.66;68.32
66524;BME280;53350;52.210;5.160;2022-09-16T07:44:49;101147.75;;;16.57;67.56
66524;BME280;53350;52.210;5.160;2022-09-16T07:47:15;101154.25;;;16.43;66.56
66524;BME280;53350;52.210;5.160;2022-09-16T07:49:41;101159.84;;;16.31;66.26
66524;BME280;53350;52.210;5.160;2022-09-16T07:52:08;101159.88;;;16.01;65.50
66524;BME280;53350;52.210;5.160;2022-09-16T07:54:34;101163.66;;;15.91;65.04
66524;BME280;53350;52.210;5.160;2022-09-16T07:57:00;101158.75;;;15.80;65.88
66524;BME280;53350;52.210;5.160;2022-09-16T07:59:28;101154.59;;;15.73;66.42
66524;BME280;53350;52.210;5.160;2022-09-16T08:01:54;101147.81;;;15.69;66.68
66524;BME280;53350;52.210;5.160;2022-09-16T08:04:21;101152.22;;;15.65;67.01
66524;BME280;53350;52.210;5.160;2022-09-16T08:06:47;101146.19;;;15.64;67.13
66524;BME280;53350;52.210;5.160;2022-09-16T08:09:13;101152.19;;;15.67;67.37
66524;BME280;53350;52.210;5.160;2022-09-16T08:11:40;101154.66;;;15.71;67.69
66524;BME280;53350;52.210;5.160;2022-09-16T08:14:06;101160.66;;;15.73;67.82
66524;BME280;53350;52.210;5.160;2022-09-16T08:16:34;101158.06;;;15.73;68.00
66524;BME280;53350;52.210;5.160;2022-09-16T08:19:00;101161.59;;;15.71;68.16
66524;BME280;53350;52.210;5.160;2022-09-16T08:21:27;101167.63;;;15.71;68.55
66524;BME280;53350;52.210;5.160;2022-09-16T08:23:54;101164.16;;;15.72;68.69
66524;BME280;53350;52.210;5.160;2022-09-16T08:26:20;101170.81;;;15.82;68.88
66524;BME280;53350;52.210;5.160;2022-09-16T08:28:47;101163.47;;;15.97;68.88
66524;BME280;53350;52.210;5.160;2022-09-16T08:31:14;101169.00;;;16.14;68.93
66524;BME280;53350;52.210;5.160;2022-09-16T08:33:42;101158.19;;;16.28;68.09
66524;BME280;53350;52.210;5.160;2022-09-16T08:36:11;101160.31;;;16.44;67.02
66524;BME280;53350;52.210;5.160;2022-09-16T08:38:38;101166.00;;;16.55;66.98
66524;BME280;53350;52.210;5.160;2022-09-16T08:41:05;101172.59;;;16.67;65.84
66524;BME280;53350;52.210;5.160;2022-09-16T08:43:34;101170.63;;;16.74;65.13
66524;BME280;53350;52.210;5.160;2022-09-16T08:46:02;101174.63;;;16.84;64.45
66524;BME280;53350;52.210;5.160;2022-09-16T08:48:35;101184.66;;;16.96;64.62
66524;BME280;53350;52.210;5.160;2022-09-16T08:51:08;101182.59;;;17.06;65.17
66524;BME280;53350;52.210;5.160;2022-09-16T08:53:37;101184.22;;;17.09;64.84
66524;BME280;53350;52.210;5.160;2022-09-16T08:56:12;101192.97;;;17.08;64.74
66524;BME280;53350;52.210;5.160;2022-09-16T08:58:40;101192.56;;;16.93;64.61
66524;BME280;53350;52.210;5.160;2022-09-16T09:01:11;101192.09;;;16.80;64.96
66524;BME280;53350;52.210;5.160;2022-09-16T09:03:40;101197.47;;;16.74;65.15
66524;BME280;53350;52.210;5.160;2022-09-16T09:06:13;101202.00;;;16.69;65.19
66524;BME280;53350;52.210;5.160;2022-09-16T09:08:47;101206.41;;;16.67;65.11
66524;BME280;53350;52.210;5.160;2022-09-16T09:11:17;101204.84;;;16.61;64.46
66524;BME280;53350;52.210;5.160;2022-09-16T09:13:49;101191.84;;;16.61;65.11
66524;BME280;53350;52.210;5.160;2022-09-16T09:16:20;101194.91;;;16.73;64.93
66524;BME280;53350;52.210;5.160;2022-09-16T09:18:51;101191.94;;;16.85;64.85
66524;BME280;53350;52.210;5.160;2022-09-16T09:21:25;101194.31;;;16.93;63.85
66524;BME280;53350;52.210;5.160;2022-09-16T09:24:03;101192.56;;;16.93;63.77
66524;BME280;53350;52.210;5.160;2022-09-16T09:26:35;101196.19;;;16.89;63.94
66524;BME280;53350;52.210;5.160;2022-09-16T09:29:13;101184.22;;;16.82;64.21
66524;BME280;53350;52.210;5.160;2022-09-16T09:31:43;101171.63;;;16.69;63.46
66524;BME280;53350;52.210;5.160;2022-09-16T09:34:14;101175.97;;;16.69;63.46
66524;BME280;53350;52.210;5.160;2022-09-16T09:36:47;101180.03;;;16.78;61.18
66524;BME280;53350;52.210;5.160;2022-09-16T09:39:26;101182.72;;;16.75;60.57
66524;BME280;53350;52.210;5.160;2022-09-16T09:41:57;101179.25;;;16.74;61.75
66524;BME280;53350;52.210;5.160;2022-09-16T09:44:28;101184.50;;;16.73;62.18
66524;BME280;53350;52.210;5.160;2022-09-16T09:46:59;101179.25;;;16.74;62.62
66524;BME280;53350;52.210;5.160;2022-09-16T09:49:27;101189.53;;;16.79;63.02
66524;BME280;53350;52.210;5.160;2022-09-16T09:51:58;101193.66;;;16.86;62.63
66524;BME280;53350;52.210;5.160;2022-09-16T09:54:26;101204.81;;;16.90;62.63
66524;BME280;53350;52.210;5.160;2022-09-16T09:56:54;101216.03;;;16.92;63.15
66524;BME280;53350;52.210;5.160;2022-09-16T09:59:24;101224.53;;;16.97;61.88
66524;BME280;53350;52.210;5.160;2022-09-16T10:01:52;101220.81;;;16.77;61.75
66524;BME280;53350;52.210;5.160;2022-09-16T10:04:18;101218.03;;;16.55;62.17
66524;BME280;53350;52.210;5.160;2022-09-16T10:06:45;101223.72;;;16.40;62.56
66524;BME280;53350;52.210;5.160;2022-09-16T10:09:14;101215.63;;;16.19;62.84
66524;BME280;53350;52.210;5.160;2022-09-16T10:11:45;101219.41;;;16.09;63.06
66524;BME280;53350;52.210;5.160;2022-09-16T10:14:20;101223.84;;;16.05;63.60
66524;BME280;53350;52.210;5.160;2022-09-16T10:16:47;101213.47;;;16.05;63.96
66524;BME280;53350;52.210;5.160;2022-09-16T10:19:16;101212.69;;;16.02;64.15
66524;BME280;53350;52.210;5.160;2022-09-16T10:21:43;101214.41;;;16.03;64.03
66524;BME280;53350;52.210;5.160;2022-09-16T10:24:30;101217.72;;;16.08;64.28
66524;BME280;53350;52.210;5.160;2022-09-16T10:26:56;101219.19;;;16.16;64.31
66524;BME280;53350;52.210;5.160;2022-09-16T10:29:23;101212.06;;;16.23;64.19
66524;BME280;53350;52.210;5.160;2022-09-16T10:31:49;101211.03;;;16.29;64.20
66524;BME280;53350;52.210;5.160;2022-09-16T10:34:17;101208.47;;;16.27;63.91
66524;BME280;53350;52.210;5.160;2022-09-16T10:36:46;101209.09;;;16.36;64.19
66524;BME280;53350;52.210;5.160;2022-09-16T10:39:23;101195.75;;;16.46;64.25
66524;BME280;53350;52.210;5.160;2022-09-16T10:41:51;101189.28;;;16.60;64.04
66524;BME280;53350;52.210;5.160;2022-09-16T10:44:20;101188.00;;;16.73;64.72
66524;BME280;53350;52.210;5.160;2022-09-16T10:46:51;101184.06;;;16.88;64.41
66524;BME280;53350;52.210;5.160;2022-09-16T10:49:19;101188.00;;;17.00;64.18
66524;BME280;53350;52.210;5.160;2022-09-16T10:51:47;101179.94;;;17.08;63.19
66524;BME280;53350;52.210;5.160;2022-09-16T10:54:21;101175.41;;;17.13;63.09
66524;BME280;53350;52.210;5.160;2022-09-16T10:56:49;101184.78;;;17.18;62.70
66524;BME280;53350;52.210;5.160;2022-09-16T10:59:17;101177.66;;;17.24;61.85
66524;BME280;53350;52.210;5.160;2022-09-16T11:01:44;101178.06;;;17.36;61.82
66524;BME280;53350;52.210;5.160;2022-09-16T11:07:04;101187.63;;;17.36;62.35
66524;BME280;53350;52.210;5.160;2022-09-16T11:09:34;101200.94;;;17.28;61.79
66524;BME280;53350;52.210;5.160;2022-09-16T11:12:11;101210.03;;;17.16;61.96
66524;BME280;53350;52.210;5.160;2022-09-16T11:14:47;101213.06;;;17.02;62.55
66524;BME280;53350;52.210;5.160;2022-09-16T11:17:19;101217.81;;;16.90;64.01
66524;BME280;53350;52.210;5.160;2022-09-16T11:19:51;101233.81;;;16.77;64.28
66524;BME280;53350;52.210;5.160;2022-09-16T11:22:21;101239.69;;;16.56;63.68
66524;BME280;53350;52.210;5.160;2022-09-16T11:27:41;101214.84;;;16.17;64.42
66524;BME280;53350;52.210;5.160;2022-09-16T11:30:12;101206.41;;;16.09;64.35
66524;BME280;53350;52.210;5.160;2022-09-16T11:32:53;101202.19;;;16.06;64.77
66524;BME280;53350;52.210;5.160;2022-09-16T11:35:29;101194.38;;;16.06;65.42
66524;BME280;53350;52.210;5.160;2022-09-16T11:38:02;101193.38;;;16.10;65.56
66524;BME280;53350;52.210;5.160;2022-09-16T11:40:32;101187.16;;;16.16;65.75
66524;BME280;53350;52.210;5.160;2022-09-16T11:43:15;101186.88;;;16.25;66.02
66524;BME280;53350;52.210;5.160;2022-09-16T11:45:48;101186.59;;;16.34;66.14
66524;BME280;53350;52.210;5.160;2022-09-16T11:48:22;101178.69;;;16.38;65.88
66524;BME280;53350;52.210;5.160;2022-09-16T11:50:51;101184.47;;;16.47;66.31
66524;BME280;53350;52.210;5.160;2022-09-16T11:56:05;101179.56;;;16.65;66.27
66524;BME280;53350;52.210;5.160;2022-09-16T11:58:35;101178.63;;;16.67;66.99
66524;BME280;53350;52.210;5.160;2022-09-16T12:01:08;101183.47;;;16.78;66.35
66524;BME280;53350;52.210;5.160;2022-09-16T12:03:39;101184.91;;;16.87;65.95
66524;BME280;53350;52.210;5.160;2022-09-16T12:06:09;101174.47;;;16.90;65.04
66524;BME280;53350;52.210;5.160;2022-09-16T12:08:41;101178.69;;;16.93;64.14
66524;BME280;53350;52.210;5.160;2022-09-16T12:11:12;101178.59;;;16.96;63.13
66524;BME280;53350;52.210;5.160;2022-09-16T12:13:40;101172.38;;;17.00;62.26
66524;BME280;53350;52.210;5.160;2022-09-16T12:16:11;101177.59;;;17.00;62.78
66524;BME280;53350;52.210;5.160;2022-09-16T12:18:39;101180.00;;;17.06;61.42
66524;BME280;53350;52.210;5.160;2022-09-16T12:21:08;101183.28;;;17.11;62.04
66524;BME280;53350;52.210;5.160;2022-09-16T12:23:39;101197.13;;;17.13;60.92
66524;BME280;53350;52.210;5.160;2022-09-16T12:26:08;101198.69;;;17.17;60.96
66524;BME280;53350;52.210;5.160;2022-09-16T12:28:36;101200.44;;;17.17;61.50
66524;BME280;53350;52.210;5.160;2022-09-16T12:31:09;101186.44;;;17.21;61.38
66524;BME280;53350;52.210;5.160;2022-09-16T12:33:41;101194.19;;;17.23;61.66
66524;BME280;53350;52.210;5.160;2022-09-16T12:36:10;101189.72;;;17.26;62.29
66524;BME280;53350;52.210;5.160;2022-09-16T12:38:37;101189.75;;;17.25;62.71
66524;BME280;53350;52.210;5.160;2022-09-16T12:46:37;101191.53;;;17.24;64.12
66524;BME280;53350;52.210;5.160;2022-09-16T12:54:49;101180.34;;;17.20;63.96
66524;BME280;53350;52.210;5.160;2022-09-16T12:57:26;101185.56;;;17.20;63.32
66524;BME280;53350;52.210;5.160;2022-09-16T13:00:04;101189.09;;;17.19;63.29
66524;BME280;53350;52.210;5.160;2022-09-16T13:02:35;101174.78;;;17.31;62.31
66524;BME280;53350;52.210;5.160;2022-09-16T13:05:08;101174.56;;;17.37;62.27
66524;BME280;53350;52.210;5.160;2022-09-16T13:07:36;101168.13;;;17.48;61.11
66524;BME280;53350;52.210;5.160;2022-09-16T13:10:04;101167.63;;;17.62;61.53
66524;BME280;53350;52.210;5.160;2022-09-16T13:12:31;101153.88;;;17.82;60.67
66524;BME280;53350;52.210;5.160;2022-09-16T13:14:58;101150.94;;;17.91;60.84
66524;BME280;53350;52.210;5.160;2022-09-16T13:17:26;101160.66;;;17.86;61.04
66524;BME280;53350;52.210;5.160;2022-09-16T13:19:53;101158.84;;;17.88;60.56
66524;BME280;53350;52.210;5.160;2022-09-16T13:22:22;101160.72;;;17.84;58.05